Terminal Aerodrome Forecast
Issued by NWS

Home | Current Version | Previous Version | Text Only | Print | Product List | Glossary On
Versions: 1 2 3 4 5 6 7 8 9 10 11 12 13 14 15 16 17 18 19 20 21 22
000
FTUS41 KCAR 271141
TAFFVE
TAF
KFVE 271141Z 2712/2812 03012G18KT P6SM OVC070
     FM271600 02013G23KT 4SM -SN OVC020
     FM271800 02015G25KT 1SM -SN BLSN OVC008
     FM272000 01018G28KT 3/4SM -SN BLSN OVC005
     FM280300 01018G28KT 1 1/2SM -SN BLSN OVC007=

USA.gov is the U.S. government's official web portal to all federal, state and local government web resources and services.